createdAt,value
2022-11-07T00:00:56.692Z,12.97
2022-11-07T00:05:58.454Z,12.81
2022-11-07T00:11:01.828Z,12.65
2022-11-07T00:16:05.295Z,12.84
2022-11-07T00:21:08.079Z,12.94
2022-11-07T00:26:12.389Z,12.80
2022-11-07T00:31:14.577Z,12.58
2022-11-07T00:36:17.238Z,12.85
2022-11-07T00:41:20.342Z,12.64
2022-11-07T00:46:22.254Z,12.40
2022-11-07T00:51:25.292Z,12.79
2022-11-07T00:56:28.430Z,12.60
2022-11-07T01:01:31.340Z,12.77
2022-11-07T01:06:34.576Z,12.52
2022-11-07T01:11:37.830Z,12.47
2022-11-07T01:16:39.715Z,12.56
2022-11-07T01:21:42.154Z,12.47
2022-11-07T01:26:47.881Z,12.40
2022-11-07T01:31:49.711Z,12.60
2022-11-07T01:36:51.503Z,12.67
2022-11-07T01:41:54.649Z,12.64
2022-11-07T01:46:57.314Z,12.85
2022-11-07T01:52:00.101Z,12.94
2022-11-07T01:57:06.032Z,12.82
2022-11-07T02:02:08.028Z,12.74
2022-11-07T02:07:11.466Z,12.66
2022-11-07T02:12:14.781Z,12.90
2022-11-07T02:17:16.702Z,12.82
2022-11-07T02:22:24.939Z,13.18
2022-11-07T02:27:29.572Z,13.26
2022-11-07T02:32:31.861Z,12.85
2022-11-07T02:37:35.384Z,13.36
2022-11-07T02:42:44.844Z,13.33
2022-11-07T02:47:46.688Z,12.94
2022-11-07T02:52:48.574Z,13.10
2022-11-07T02:57:51.710Z,12.91
2022-11-07T03:02:53.704Z,13.09
2022-11-07T03:07:55.592Z,13.22
2022-11-07T03:12:58.711Z,13.24
2022-11-07T03:18:00.495Z,13.07
2022-11-07T03:23:02.407Z,13.02
2022-11-07T03:28:05.994Z,12.97
2022-11-07T03:33:07.949Z,12.96
2022-11-07T03:38:09.884Z,13.00
2022-11-07T03:43:13.193Z,13.06
2022-11-07T03:48:15.211Z,13.13
2022-11-07T03:53:22.164Z,13.12
2022-11-07T03:58:28.113Z,13.15
2022-11-07T04:03:29.911Z,13.49
2022-11-07T04:08:31.715Z,13.39
2022-11-07T04:13:53.362Z,13.38
2022-11-07T04:18:55.162Z,13.32
2022-11-07T04:23:56.928Z,13.24
2022-11-07T04:29:00.061Z,13.18
2022-11-07T04:34:01.837Z,13.19
2022-11-07T04:39:03.816Z,13.46
2022-11-07T04:44:07.059Z,13.43
2022-11-07T04:49:08.799Z,13.48
2022-11-07T04:54:12.033Z,13.55
2022-11-07T04:59:15.189Z,13.67
2022-11-07T05:04:16.990Z,13.54
2022-11-07T05:09:18.895Z,13.49
2022-11-07T05:14:22.057Z,13.51
2022-11-07T05:19:23.828Z,13.29
2022-11-07T05:24:25.666Z,13.04
2022-11-07T05:29:28.764Z,13.14
2022-11-07T05:34:30.572Z,13.17
2022-11-07T05:39:32.314Z,13.07
2022-11-07T05:44:35.425Z,13.01
2022-11-07T05:49:37.156Z,13.08
2022-11-07T05:54:38.979Z,13.18
2022-11-07T05:59:42.059Z,13.33
2022-11-07T06:04:44.338Z,13.26
2022-11-07T06:09:46.127Z,13.26
2022-11-07T06:14:49.258Z,13.47
2022-11-07T06:19:50.999Z,13.43
2022-11-07T06:24:52.795Z,13.55
2022-11-07T06:29:55.983Z,13.43
2022-11-07T06:34:57.686Z,13.19
2022-11-07T06:39:59.468Z,13.36
2022-11-07T06:45:02.491Z,13.47
2022-11-07T06:50:04.661Z,13.43
2022-11-07T06:55:07.593Z,13.46
2022-11-07T07:00:12.399Z,13.49
2022-11-07T07:05:17.163Z,13.66
2022-11-07T07:10:21.835Z,14.04
2022-11-07T07:15:25.060Z,13.87
2022-11-07T07:20:26.929Z,14.01
2022-11-07T07:25:28.725Z,14.27
2022-11-07T07:30:31.890Z,14.30
2022-11-07T07:35:33.730Z,14.94
2022-11-07T07:40:35.504Z,15.06
2022-11-07T07:45:38.607Z,14.80
2022-11-07T07:50:40.337Z,17.03
2022-11-07T07:55:42.169Z,18.43
2022-11-07T08:00:45.355Z,21.22
2022-11-07T08:05:52.304Z,19.33
2022-11-07T08:10:56.701Z,20.74
2022-11-07T08:16:01.740Z,21.78
2022-11-07T08:21:03.641Z,26.45
2022-11-07T08:26:05.798Z,25.85
2022-11-07T08:31:10.083Z,26.19
2022-11-07T08:36:11.800Z,28.58
2022-11-07T08:41:17.178Z,32.14
2022-11-07T08:46:22.709Z,29.56
2022-11-07T08:51:24.482Z,35.31
2022-11-07T08:56:26.253Z,35.15
2022-11-07T09:01:29.504Z,36.03
2022-11-07T09:06:32.903Z,32.83
2022-11-07T09:11:34.683Z,29.98
2022-11-07T09:16:37.736Z,30.93
2022-11-07T09:21:39.552Z,36.95
2022-11-07T09:26:41.480Z,37.23
2022-11-07T09:31:44.547Z,38.10
2022-11-07T09:36:46.220Z,37.97
2022-11-07T09:41:53.101Z,37.09
2022-11-07T09:46:59.184Z,30.51
2022-11-07T09:52:03.999Z,26.49
2022-11-07T09:57:05.711Z,24.77
2022-11-07T10:02:14.431Z,23.69
2022-11-07T10:07:21.108Z,24.77
2022-11-07T10:12:31.423Z,25.53
2022-11-07T10:17:39.309Z,22.97
2022-11-07T10:22:49.301Z,21.32
2022-11-07T10:27:52.538Z,20.28
2022-11-07T10:32:59.829Z,19.68
2022-11-07T10:38:02.329Z,19.36
2022-11-07T10:43:05.935Z,19.42
2022-11-07T10:48:09.097Z,19.58
2022-11-07T10:53:17.305Z,19.68
2022-11-07T10:58:20.184Z,19.31
2022-11-07T11:03:29.050Z,18.83
2022-11-07T11:08:38.568Z,18.74
2022-11-07T11:13:40.281Z,18.40
2022-11-07T11:18:49.785Z,18.34
2022-11-07T11:23:51.954Z,18.01
2022-11-07T11:28:55.115Z,17.93
2022-11-07T11:34:00.601Z,18.12
2022-11-07T11:39:03.049Z,18.41
2022-11-07T11:44:06.917Z,18.74
2022-11-07T11:49:13.361Z,19.14
2022-11-07T11:54:15.487Z,18.69
2022-11-07T11:59:34.721Z,18.36
2022-11-07T12:04:43.439Z,18.62
2022-11-07T12:09:45.933Z,18.43
2022-11-07T12:15:03.175Z,18.09
2022-11-07T12:20:12.717Z,17.73
2022-11-07T12:25:17.867Z,17.63
2022-11-07T12:30:22.144Z,17.88
2022-11-07T12:35:34.985Z,17.62
2022-11-07T12:40:40.756Z,17.46
2022-11-07T12:45:48.420Z,18.12
2022-11-07T12:50:53.180Z,18.55
2022-11-07T12:55:57.331Z,18.89
2022-11-07T13:00:59.658Z,18.77
2022-11-07T13:06:09.864Z,18.78
2022-11-07T13:11:15.729Z,19.02
2022-11-07T13:16:23.483Z,19.36
2022-11-07T13:21:26.513Z,19.75
2022-11-07T13:26:47.633Z,19.67
2022-11-07T13:32:05.936Z,19.61
2022-11-07T13:37:13.318Z,19.44
2022-11-07T13:42:16.080Z,19.17
2022-11-07T13:47:21.300Z,19.25
2022-11-07T13:52:28.176Z,18.55
2022-11-07T13:57:33.354Z,18.36
2022-11-07T14:02:35.402Z,18.17
2022-11-07T14:07:39.679Z,17.83
2022-11-07T14:12:41.457Z,17.45
2022-11-07T14:17:43.384Z,17.49
2022-11-07T14:22:52.884Z,17.37
2022-11-07T14:27:54.950Z,17.36
2022-11-07T14:32:57.622Z,17.43
2022-11-07T14:38:08.124Z,17.16
2022-11-07T14:43:11.660Z,17.23
2022-11-07T14:48:14.289Z,17.16
2022-11-07T14:53:19.975Z,16.91
2022-11-07T14:58:23.951Z,17.00
2022-11-07T15:03:30.762Z,17.27
2022-11-07T15:08:34.552Z,17.24
2022-11-07T15:13:36.339Z,17.13
2022-11-07T15:18:39.632Z,16.98
2022-11-07T15:23:42.785Z,16.95
2022-11-07T15:28:45.354Z,16.82
2022-11-07T15:33:47.142Z,16.71
2022-11-07T15:38:50.518Z,16.56
2022-11-07T15:43:52.324Z,16.21
2022-11-07T15:48:54.116Z,16.37
2022-11-07T15:53:57.313Z,16.32
2022-11-07T15:58:59.051Z,16.18
2022-11-07T16:04:00.866Z,16.13
2022-11-07T16:09:06.485Z,16.22
2022-11-07T16:14:38.101Z,16.30
2022-11-07T16:19:33.058Z,16.14
2022-11-07T16:24:36.289Z,16.15
2022-11-07T16:29:38.101Z,16.13
2022-11-07T16:34:39.899Z,15.95
2022-11-07T16:39:43.070Z,16.28
2022-11-07T16:44:44.977Z,15.97
2022-11-07T16:49:49.040Z,16.16
2022-11-07T16:54:54.115Z,15.97
2022-11-07T16:59:56.026Z,16.01
2022-11-07T17:04:58.085Z,16.07
2022-11-07T17:10:01.329Z,16.19
2022-11-07T17:15:03.764Z,16.04
2022-11-07T17:20:07.038Z,15.90
2022-11-07T17:25:10.459Z,15.81
2022-11-07T17:30:14.418Z,15.90
2022-11-07T17:35:31.564Z,15.87
2022-11-07T17:40:35.537Z,15.91
2022-11-07T17:45:37.444Z,15.92
2022-11-07T17:50:39.875Z,15.97
2022-11-07T17:55:42.982Z,15.96
2022-11-07T18:00:44.993Z,16.01
2022-11-07T18:05:47.728Z,16.00
2022-11-07T18:10:56.341Z,15.88
2022-11-07T18:15:58.402Z,15.87
2022-11-07T18:21:00.305Z,15.86
2022-11-07T18:26:04.156Z,15.74
2022-11-07T18:31:07.375Z,15.83
2022-11-07T18:36:11.017Z,15.87
2022-11-07T18:41:15.317Z,15.81
2022-11-07T18:46:19.253Z,16.01
2022-11-07T18:51:21.793Z,15.95
2022-11-07T18:56:24.921Z,15.84
2022-11-07T19:01:28.430Z,15.93
2022-11-07T19:06:30.393Z,15.98
2022-11-07T19:11:34.071Z,16.15
2022-11-07T19:16:35.911Z,15.86
2022-11-07T19:21:41.467Z,15.88
2022-11-07T19:26:47.032Z,16.02
2022-11-07T19:31:48.847Z,16.10
2022-11-07T19:36:50.640Z,16.02
2022-11-07T19:41:53.794Z,16.00
2022-11-07T19:46:56.907Z,15.85
2022-11-07T19:51:58.792Z,16.02
2022-11-07T19:57:05.074Z,15.89
2022-11-07T20:02:31.753Z,15.79
2022-11-07T20:07:30.536Z,15.53
2022-11-07T20:12:33.734Z,15.55
2022-11-07T20:17:35.507Z,15.77
2022-11-07T20:22:37.316Z,15.97
2022-11-07T20:27:40.541Z,15.80
2022-11-07T20:32:44.759Z,15.75
2022-11-07T20:37:46.692Z,15.83
2022-11-07T20:42:53.588Z,15.99
2022-11-07T20:47:55.504Z,15.95
2022-11-07T20:52:59.120Z,15.70
2022-11-07T20:58:04.358Z,15.88
2022-11-07T21:03:06.438Z,15.85
2022-11-07T21:08:08.533Z,15.99
2022-11-07T21:13:14.483Z,16.03
2022-11-07T21:18:16.931Z,15.96
2022-11-07T21:23:19.420Z,15.94
2022-11-07T21:28:23.012Z,15.92
2022-11-07T21:33:24.956Z,15.79
2022-11-07T21:38:26.787Z,15.62
2022-11-07T21:43:29.994Z,15.33
2022-11-07T21:48:31.947Z,15.22
2022-11-07T21:53:37.647Z,15.39
2022-11-07T21:58:41.457Z,15.32
2022-11-07T22:04:05.108Z,15.30
2022-11-07T22:09:05.789Z,15.23
2022-11-07T22:14:09.374Z,15.46
2022-11-07T22:19:12.887Z,15.43
2022-11-07T22:24:15.092Z,15.26
2022-11-07T22:29:18.637Z,15.27
2022-11-07T22:34:20.494Z,15.29
2022-11-07T22:39:22.411Z,15.15
2022-11-07T22:44:25.810Z,14.92
2022-11-07T22:49:27.833Z,14.90
2022-11-07T22:54:29.799Z,14.82
2022-11-07T22:59:33.098Z,14.89
2022-11-07T23:04:34.986Z,15.01
2022-11-07T23:09:37.231Z,15.14
2022-11-07T23:14:40.502Z,15.11
2022-11-07T23:19:42.359Z,15.24
2022-11-07T23:24:46.301Z,15.21
2022-11-07T23:29:49.516Z,15.27
2022-11-07T23:34:54.338Z,15.14
2022-11-07T23:39:56.913Z,15.19
2022-11-07T23:45:18.677Z,15.35
2022-11-07T23:50:39.112Z,15.18
2022-11-07T23:55:40.926Z,15.19
